Time;durP1;ratioP1;P1;durP2;ratioP2;P2;SDS_P1;SDS_P2;PMS_P1;PMS_P2;Temp;Humidity;BMP_temperature;BMP_pressure;BME280_temperature;BME280_humidity;BME280_pressure;Samples;Min_cycle;Max_cycle;Signal;HPM_P1;HPM_P2
2023/01/26 00:02:11;;;;;;;14.45;6.95;;;;;;;1.59;71.17;100305.69;4954090;28;20117;-96
2023/01/26 00:04:39;;;;;;;12.55;6.55;;;;;;;1.84;71.98;100353.16;4953798;28;20097;-95
2023/01/26 00:07:05;;;;;;;13.57;6.82;;;;;;;1.58;71.55;100310.19;4957718;28;20027;-96
2023/01/26 00:09:31;;;;;;;14.02;6.95;;;;;;;1.80;71.53;100340.25;4957555;28;20484;-96
2023/01/26 00:11:58;;;;;;;14.93;6.88;;;;;;;1.74;71.71;100324.25;4959203;28;20034;-96
2023/01/26 00:14:27;;;;;;;14.07;7.47;;;;;;;1.95;71.14;100342.03;4958050;28;20069;-96
2023/01/26 00:16:53;;;;;;;11.15;6.65;;;;;;;1.74;71.47;100325.09;4957183;28;20034;-96
2023/01/26 00:19:19;;;;;;;12.00;6.45;;;;;;;1.69;70.15;100313.38;4954170;28;20046;-96
2023/01/26 00:21:44;;;;;;;13.15;7.28;;;;;;;1.81;70.27;100315.34;4954880;28;20655;-96
2023/01/26 00:24:10;;;;;;;10.23;5.60;;;;;;;1.88;70.76;100319.91;4953704;28;20092;-96
2023/01/26 00:26:35;;;;;;;12.38;6.75;;;;;;;1.94;69.88;100321.81;4952500;28;20036;-96
2023/01/26 00:29:01;;;;;;;13.35;6.80;;;;;;;1.74;70.33;100310.97;4952714;28;20068;-96
2023/01/26 00:31:27;;;;;;;10.10;5.63;;;;;;;1.72;70.44;100320.94;4953012;28;20034;-96
2023/01/26 00:33:53;;;;;;;11.75;6.40;;;;;;;1.73;71.03;100318.13;4952060;28;20034;-96
2023/01/26 00:36:19;;;;;;;15.00;7.20;;;;;;;1.70;70.83;100321.16;4933881;28;20073;-96
2023/01/26 00:38:47;;;;;;;13.88;6.80;;;;;;;1.55;71.76;100309.75;4933238;28;20058;-96
2023/01/26 00:42:05;;;;;;;14.60;6.80;;;;;;;1.60;71.45;100310.84;4934957;28;20126;-96
2023/01/26 00:43:59;;;;;;;12.40;6.32;;;;;;;1.55;71.71;100309.75;4955340;28;20120;-96
2023/01/26 00:46:24;;;;;;;11.57;6.57;;;;;;;1.64;71.09;100303.31;4933684;28;20039;-95
2023/01/26 00:48:50;;;;;;;12.40;6.78;;;;;;;1.64;71.23;100291.88;4932736;28;20118;-94
2023/01/26 00:51:15;;;;;;;12.30;6.90;;;;;;;1.66;70.95;100296.00;4930200;28;20023;-95
2023/01/26 00:53:41;;;;;;;13.45;7.18;;;;;;;1.68;71.50;100291.31;4930522;28;20031;-95
2023/01/26 00:56:07;;;;;;;11.55;6.55;;;;;;;1.86;70.99;100290.06;4947397;28;20039;-94
2023/01/26 00:58:32;;;;;;;10.02;6.03;;;;;;;1.81;69.98;100264.91;4929812;28;20030;-94
2023/01/26 01:00:58;;;;;;;13.23;6.82;;;;;;;1.80;69.81;100254.47;4930975;28;20037;-94
2023/01/26 01:03:23;;;;;;;10.48;6.35;;;;;;;1.86;70.00;100274.13;4930477;28;20043;-95
2023/01/26 01:05:50;;;;;;;13.32;6.55;;;;;;;1.79;70.28;100279.38;4930475;28;20509;-94
2023/01/26 01:08:16;;;;;;;11.32;6.05;;;;;;;1.75;70.02;100268.31;4929226;28;20046;-94
2023/01/26 01:10:41;;;;;;;13.77;6.65;;;;;;;1.76;69.74;100261.97;4931007;28;20030;-95
2023/01/26 01:13:07;;;;;;;10.77;6.40;;;;;;;1.74;69.14;100244.59;4930667;28;20594;-95
2023/01/26 01:15:32;;;;;;;13.32;6.53;;;;;;;1.67;69.76;100243.72;4930652;28;20027;-94
2023/01/26 01:17:58;;;;;;;11.43;7.00;;;;;;;1.67;69.63;100243.72;4929392;28;20047;-95
2023/01/26 01:20:23;;;;;;;10.70;5.90;;;;;;;1.72;69.62;100242.16;4946700;28;20053;-95
2023/01/26 01:22:50;;;;;;;12.05;5.72;;;;;;;1.76;69.13;100238.09;4930591;28;20073;-95
2023/01/26 01:25:16;;;;;;;12.95;7.00;;;;;;;1.66;69.72;100228.78;4930039;28;20047;-94
2023/01/26 01:27:41;;;;;;;13.95;6.95;;;;;;;1.58;69.96;100230.56;4929023;28;20074;-96
2023/01/26 01:30:08;;;;;;;11.35;6.95;;;;;;;1.39;70.39;100236.47;4930566;28;20034;-95
2023/01/26 01:32:34;;;;;;;12.95;7.28;;;;;;;1.45;70.70;100235.72;4930853;28;20637;-95
2023/01/26 01:35:00;;;;;;;9.95;6.53;;;;;;;1.46;71.19;100247.19;4940145;28;20057;-95
2023/01/26 01:37:27;;;;;;;13.70;6.85;;;;;;;1.37;71.24;100234.03;4948106;28;20030;-94
2023/01/26 01:39:53;;;;;;;11.30;6.47;;;;;;;1.39;71.22;100212.59;4948616;28;20113;-94
2023/01/26 01:42:19;;;;;;;11.95;6.57;;;;;;;1.53;71.69;100240.91;4948979;28;20034;-95
2023/01/26 01:44:44;;;;;;;15.60;7.47;;;;;;;1.58;71.73;100254.47;4964636;28;20042;-94
2023/01/26 01:47:20;;;;;;;11.93;6.53;;;;;;;1.53;71.79;100245.41;4947787;28;20030;-94
2023/01/26 01:49:46;;;;;;;11.45;6.47;;;;;;;1.44;71.81;100214.69;4948624;28;20038;-94
2023/01/26 01:52:17;;;;;;;15.20;6.78;;;;;;;1.66;71.54;100247.38;4949706;28;20508;-94
2023/01/26 01:54:51;;;;;;;10.10;6.00;;;;;;;1.83;70.52;100240.81;4949115;28;20038;-94
2023/01/26 01:57:27;;;;;;;12.18;6.18;;;;;;;1.70;70.59;100230.91;4948610;28;20041;-95
2023/01/26 02:00:07;;;;;;;10.90;6.15;;;;;;;1.75;70.99;100239.09;4949268;28;20054;-94
2023/01/26 02:02:33;;;;;;;10.82;6.18;;;;;;;1.64;71.00;100225.50;4948682;28;20038;-94
2023/01/26 02:05:02;;;;;;;12.07;6.55;;;;;;;1.84;70.37;100238.97;4948975;28;20030;-96
2023/01/26 02:07:28;;;;;;;11.68;6.25;;;;;;;1.66;70.22;100226.13;4949291;28;20030;-94
2023/01/26 02:12:37;;;;;;;10.95;6.10;;;;;;;1.57;71.59;100215.66;4969986;28;20041;-95
2023/01/26 02:15:03;;;;;;;14.98;6.22;;;;;;;1.67;71.12;100211.88;4948744;28;20133;-95
2023/01/26 02:17:28;;;;;;;10.27;6.28;;;;;;;1.82;70.05;100212.63;4948459;28;20549;-95
2023/01/26 02:20:03;;;;;;;12.43;6.60;;;;;;;1.78;70.49;100219.31;4948549;28;20069;-96
2023/01/26 02:22:57;;;;;;;11.70;6.38;;;;;;;1.76;69.90;100208.06;4980116;28;20408;-95
2023/01/26 02:26:07;;;;;;;13.43;6.88;;;;;;;1.65;70.08;100203.28;4980615;28;20035;-94
2023/01/26 02:28:32;;;;;;;12.15;6.28;;;;;;;1.57;70.51;100181.13;4957714;29;20039;-95
2023/01/26 02:30:58;;;;;;;13.70;7.00;;;;;;;1.31;71.09;100163.13;4944186;28;20038;-95
2023/01/26 02:33:29;;;;;;;16.98;7.28;;;;;;;1.39;71.12;100167.47;4947654;28;20088;-95
2023/01/26 02:35:55;;;;;;;11.32;6.65;;;;;;;1.35;71.63;100159.09;4948849;28;20046;-96
2023/01/26 02:38:21;;;;;;;12.45;6.45;;;;;;;1.19;71.05;100152.19;4948921;28;20038;-95
2023/01/26 02:41:01;;;;;;;12.30;6.95;;;;;;;1.45;70.64;100168.56;4948765;28;20057;-94
2023/01/26 02:43:27;;;;;;;12.30;5.65;;;;;;;1.52;70.13;100172.13;4948465;28;20038;-95
2023/01/26 02:45:53;;;;;;;14.75;6.97;;;;;;;1.53;69.90;100152.53;4946869;28;20041;-95
2023/01/26 02:51:02;;;;;;;12.07;5.97;;;;;;;1.60;69.84;100185.28;4969180;28;20065;-95
2023/01/26 02:53:28;;;;;;;14.20;7.55;;;;;;;1.55;70.75;100183.16;4947926;28;20019;-95
2023/01/26 02:55:53;;;;;;;15.63;6.65;;;;;;;1.26;70.44;100146.13;4947951;28;20038;-95
2023/01/26 02:58:19;;;;;;;11.70;6.55;;;;;;;1.44;70.31;100157.13;4947834;28;20030;-95
2023/01/26 03:00:44;;;;;;;13.52;6.50;;;;;;;1.52;70.57;100156.19;4948122;28;20030;-95
2023/01/26 03:03:40;;;;;;;13.30;7.13;;;;;;;1.48;69.58;100145.13;4948246;28;20041;-95
2023/01/26 03:06:08;;;;;;;17.75;6.80;;;;;;;1.60;69.57;100175.47;4951408;28;20057;-95
2023/01/26 03:08:36;;;;;;;16.90;7.25;;;;;;;1.48;70.75;100155.75;4964499;28;20069;-96
2023/01/26 03:11:03;;;;;;;13.00;6.68;;;;;;;1.51;69.58;100150.06;4948742;28;20497;-96
2023/01/26 03:13:28;;;;;;;15.45;7.68;;;;;;;1.64;69.32;100149.38;4947593;28;20026;-95
2023/01/26 03:15:54;;;;;;;12.50;6.97;;;;;;;1.48;70.11;100133.72;4948847;28;20061;-95
2023/01/26 03:29:25;;;;;;;14.57;7.38;;;;;;;1.39;69.87;100112.59;4973672;28;20062;-96
2023/01/26 03:31:51;;;;;;;12.85;6.47;;;;;;;1.39;69.74;100109.09;4967315;28;20038;-95
2023/01/26 03:34:17;;;;;;;12.80;6.82;;;;;;;1.31;69.49;100096.00;4951880;28;20120;-95
2023/01/26 03:36:42;;;;;;;12.70;7.03;;;;;;;1.56;69.46;100129.09;4952635;28;20026;-95
2023/01/26 03:39:08;;;;;;;12.10;6.63;;;;;;;1.58;69.54;100116.44;4950954;28;20030;-94
2023/01/26 03:58:01;;;;;;;12.90;6.55;;;;;;;1.41;69.93;100107.09;4972411;28;20073;-95
2023/01/26 04:00:26;;;;;;;13.75;7.60;;;;;;;1.49;69.64;100103.50;4967301;28;20106;-95
2023/01/26 04:08:25;;;;;;;12.93;7.35;;;;;;;1.33;69.96;100078.88;4972289;28;20085;-95
2023/01/26 04:10:52;;;;;;;12.98;6.97;;;;;;;1.32;69.74;100079.88;4951181;28;20125;-95
2023/01/26 04:21:59;;;;;;;14.00;7.57;;;;;;;1.40;69.87;100065.66;4989645;28;20121;-96
2023/01/26 04:24:25;;;;;;;15.07;7.95;;;;;;;1.27;69.48;100049.66;4942167;28;20079;-95
2023/01/26 04:26:51;;;;;;;18.98;7.78;;;;;;;1.36;69.89;100073.16;4962530;28;20031;-94
2023/01/26 04:29:16;;;;;;;14.23;7.20;;;;;;;1.41;69.77;100065.47;4945482;28;20117;-95
2023/01/26 04:31:42;;;;;;;12.00;7.30;;;;;;;1.29;69.68;100045.78;4929682;28;20453;-93
2023/01/26 04:34:12;;;;;;;14.82;8.15;;;;;;;1.30;70.11;100054.56;4945281;28;21115;-95
2023/01/26 04:36:38;;;;;;;15.20;7.63;;;;;;;1.39;69.50;100042.78;4946273;28;20043;-93
2023/01/26 04:39:03;;;;;;;14.43;7.45;;;;;;;1.41;69.60;100059.31;4945113;28;20536;-95
2023/01/26 04:41:29;;;;;;;13.57;7.25;;;;;;;1.47;69.69;100065.72;4947050;28;20093;-94
2023/01/26 04:43:57;;;;;;;16.33;7.50;;;;;;;1.49;69.30;100071.66;4931339;28;20069;-94
2023/01/26 04:46:50;;;;;;;15.52;7.80;;;;;;;1.49;69.57;100061.03;4978568;28;20039;-96
2023/01/26 04:49:46;;;;;;;14.27;7.65;;;;;;;1.28;69.65;100040.66;4959016;28;20043;-96
2023/01/26 04:52:18;;;;;;;15.00;7.95;;;;;;;1.34;70.06;100053.16;4953396;28;20042;-96
2023/01/26 04:54:48;;;;;;;15.15;7.60;;;;;;;1.33;69.42;100049.69;4978598;28;20062;-96
2023/01/26 04:57:14;;;;;;;27.90;10.65;;;;;;;1.52;69.21;100060.66;4980897;28;20030;-96
2023/01/26 04:59:49;;;;;;;16.95;8.75;;;;;;;1.41;69.42;100036.28;4982160;28;20038;-95
2023/01/26 05:05:14;;;;;;;21.58;8.07;;;;;;;1.48;69.02;100023.06;4927993;23;20061;-96
2023/01/26 05:08:18;;;;;;;14.88;8.02;;;;;;;1.50;68.69;100031.66;5020371;23;20042;-95
2023/01/26 05:10:44;;;;;;;12.02;7.78;;;;;;;1.64;68.68;100051.16;4980168;28;20061;-92
2023/01/26 05:13:09;;;;;;;14.82;7.40;;;;;;;1.60;69.24;100042.75;4960459;28;20129;-94
2023/01/26 05:15:35;;;;;;;17.60;9.13;;;;;;;1.68;68.73;100047.09;4960452;28;20174;-95
2023/01/26 05:18:01;;;;;;;15.43;7.68;;;;;;;1.48;69.52;100031.03;4960294;28;20026;-93
2023/01/26 05:20:26;;;;;;;18.88;8.40;;;;;;;1.51;69.41;100037.78;4959772;28;20423;-93
2023/01/26 05:22:52;;;;;;;17.88;8.90;;;;;;;1.41;68.75;100012.41;4964003;28;20109;-94
2023/01/26 05:25:18;;;;;;;16.52;7.95;;;;;;;1.64;68.70;100035.25;4943611;28;20501;-93
2023/01/26 05:27:43;;;;;;;16.02;8.38;;;;;;;1.81;68.55;100047.19;4944485;28;20074;-93
2023/01/26 05:30:09;;;;;;;16.48;8.25;;;;;;;1.65;68.77;100028.91;4943306;28;20093;-92
2023/01/26 05:32:35;;;;;;;20.20;8.35;;;;;;;1.69;68.02;100032.00;4945804;28;20043;-93
2023/01/26 05:35:00;;;;;;;30.33;8.95;;;;;;;1.49;69.27;100029.19;4960398;28;20073;-92
2023/01/26 05:37:26;;;;;;;16.65;8.55;;;;;;;1.46;69.28;100018.97;4944619;28;20093;-92
2023/01/26 05:39:52;;;;;;;18.95;8.40;;;;;;;1.70;69.21;100028.31;4944230;28;20139;-92
2023/01/26 05:42:17;;;;;;;18.23;9.77;;;;;;;1.60;69.30;100012.75;4959285;28;20038;-92
2023/01/26 05:44:43;;;;;;;16.60;8.02;;;;;;;1.63;68.88;100009.69;4947973;28;20077;-92
2023/01/26 05:47:08;;;;;;;19.42;8.98;;;;;;;1.65;69.61;100022.78;4964794;28;20120;-89
2023/01/26 05:49:34;;;;;;;16.42;8.32;;;;;;;1.61;69.87;100009.06;4963378;28;20014;-92
2023/01/26 05:52:00;;;;;;;18.40;8.55;;;;;;;1.60;69.26;100008.25;4968694;28;20484;-91
2023/01/26 05:54:25;;;;;;;15.82;7.80;;;;;;;1.83;69.19;100028.41;4969924;28;20065;-91
2023/01/26 05:56:52;;;;;;;16.45;8.27;;;;;;;1.76;68.71;100011.59;4967612;28;20041;-93
2023/01/26 05:59:20;;;;;;;28.48;8.70;;;;;;;1.58;68.69;99994.34;4980236;28;20050;-93
2023/01/26 06:01:46;;;;;;;16.75;9.05;;;;;;;1.78;68.49;100001.63;4964550;28;20085;-93
2023/01/26 06:04:12;;;;;;;19.63;8.25;;;;;;;1.77;68.42;99998.16;4965151;28;20035;-93
2023/01/26 06:06:40;;;;;;;17.33;8.27;;;;;;;1.78;68.60;99997.13;4980384;28;20074;-92
2023/01/26 06:09:06;;;;;;;15.40;8.23;;;;;;;1.84;67.83;100000.81;4964020;28;20068;-95
2023/01/26 06:11:32;;;;;;;22.70;9.20;;;;;;;1.71;67.84;99983.00;4979915;28;20031;-93
2023/01/26 06:13:57;;;;;;;14.10;8.45;;;;;;;1.66;67.99;99988.09;4980576;28;20102;-94
2023/01/26 06:16:23;;;;;;;19.00;8.13;;;;;;;1.86;67.58;99982.06;4964079;28;20057;-93
2023/01/26 06:18:48;;;;;;;23.00;9.18;;;;;;;2.03;68.51;99999.28;4963588;28;20523;-93
2023/01/26 06:21:14;;;;;;;23.55;9.70;;;;;;;1.98;67.74;99994.56;4991228;28;20038;-93
2023/01/26 06:23:40;;;;;;;16.50;9.18;;;;;;;2.09;67.60;99977.25;4965239;28;20416;-91
2023/01/26 06:26:06;;;;;;;18.35;9.52;;;;;;;2.29;66.52;99971.22;4965079;28;20041;-90
2023/01/26 06:28:31;;;;;;;20.17;9.20;;;;;;;2.14;66.42;99942.97;4997398;28;20034;-92
2023/01/26 06:31:04;;;;;;;14.25;8.13;;;;;;;2.25;66.54;99946.88;4998265;28;20064;-93
2023/01/26 06:33:34;;;;;;;16.60;8.15;;;;;;;2.49;66.09;99969.44;4966531;28;20030;-92
2023/01/26 06:36:03;;;;;;;19.80;8.85;;;;;;;2.38;66.38;99948.75;4966168;28;20085;-92
2023/01/26 06:38:29;;;;;;;17.05;9.45;;;;;;;2.47;66.02;99962.66;4961941;28;20042;-91
2023/01/26 06:40:57;;;;;;;15.07;7.88;;;;;;;2.41;65.73;99932.41;4965438;28;20039;-91
2023/01/26 06:43:23;;;;;;;15.07;7.85;;;;;;;2.52;64.91;99938.97;4958486;28;20038;-94
2023/01/26 06:45:48;;;;;;;15.48;9.35;;;;;;;2.47;65.96;99923.63;4967928;28;20124;-94
2023/01/26 06:48:14;;;;;;;20.13;9.68;;;;;;;2.59;65.20;99900.75;4962335;28;20524;-93
2023/01/26 06:50:39;;;;;;;21.80;10.98;;;;;;;2.74;64.55;99913.84;4959705;28;20037;-91
2023/01/26 06:53:54;;;;;;;22.65;10.43;;;;;;;2.80;64.84;99920.16;4996340;28;20029;-91
2023/01/26 06:56:20;;;;;;;20.10;9.38;;;;;;;2.76;64.52;99917.13;4981943;28;20046;-90
2023/01/26 06:58:45;;;;;;;22.13;10.30;;;;;;;2.62;65.57;99926.91;4979402;28;20037;-92
2023/01/26 07:01:19;;;;;;;20.42;8.98;;;;;;;2.62;64.75;99910.16;4946961;28;20031;-91
2023/01/26 07:03:47;;;;;;;28.80;16.67;;;;;;;2.67;65.32;99905.03;4947359;28;20038;-92
2023/01/26 07:06:12;;;;;;;14.95;9.35;;;;;;;2.88;64.44;99927.94;4964529;28;20039;-93
2023/01/26 07:08:38;;;;;;;17.00;9.35;;;;;;;2.64;64.14;99926.72;4949477;28;20058;-93
2023/01/26 07:11:07;;;;;;;18.08;8.57;;;;;;;2.66;64.56;99910.53;4953098;28;20042;-96
2023/01/26 07:13:32;;;;;;;13.50;8.07;;;;;;;2.69;64.57;99926.09;4967224;28;20030;-93
2023/01/26 07:16:05;;;;;;;18.08;8.30;;;;;;;2.99;64.33;99948.63;4949635;28;20034;-91
2023/01/26 07:18:33;;;;;;;18.20;9.55;;;;;;;3.06;63.97;99940.66;4945726;28;20077;-92
2023/01/26 07:21:12;;;;;;;16.42;8.60;;;;;;;2.98;63.81;99919.56;4978595;28;20058;-91
2023/01/26 07:23:51;;;;;;;14.55;8.27;;;;;;;3.12;63.19;99920.38;4958896;28;20030;-94
2023/01/26 07:26:21;;;;;;;16.15;8.25;;;;;;;3.26;63.44;99934.47;4964758;28;20038;-94
2023/01/26 07:28:48;;;;;;;19.67;11.15;;;;;;;3.10;64.14;99919.78;4978718;28;20034;-96
2023/01/26 07:31:16;;;;;;;17.75;9.57;;;;;;;3.36;63.70;99950.84;4975035;28;20045;-95
2023/01/26 07:33:41;;;;;;;19.65;9.13;;;;;;;3.23;63.31;99941.84;4967964;28;20145;-93
2023/01/26 07:36:07;;;;;;;20.02;9.00;;;;;;;3.08;63.22;99912.00;4969074;28;20138;-91
2023/01/26 07:38:33;;;;;;;20.13;10.55;;;;;;;3.27;63.17;99933.47;4967624;28;20045;-91
2023/01/26 07:41:02;;;;;;;16.65;8.48;;;;;;;3.35;63.29;99933.25;4966003;28;20130;-92
2023/01/26 07:43:28;;;;;;;16.13;8.68;;;;;;;3.19;62.79;99900.72;4964375;28;20062;-91
2023/01/26 07:45:54;;;;;;;26.27;14.98;;;;;;;3.28;63.23;99900.50;4972225;28;20038;-93
2023/01/26 07:48:21;;;;;;;17.73;9.30;;;;;;;3.32;62.85;99907.03;4977803;28;20035;-91
2023/01/26 07:50:51;;;;;;;18.65;7.43;;;;;;;3.40;62.77;99904.16;4975063;28;20027;-96
2023/01/26 07:53:21;;;;;;;16.58;9.10;;;;;;;3.63;62.34;99914.34;4953652;28;20074;-96
2023/01/26 07:56:06;;;;;;;17.20;8.63;;;;;;;3.71;62.30;99895.47;4973057;28;20046;-96
2023/01/26 07:58:32;;;;;;;19.38;9.35;;;;;;;3.49;61.78;99870.97;4970593;28;20073;-93
2023/01/26 08:01:21;;;;;;;16.25;8.88;;;;;;;3.68;61.71;99895.09;4959131;28;20027;-96
2023/01/26 08:04:11;;;;;;;17.27;8.85;;;;;;;3.68;62.08;99871.13;4963552;28;20101;-96
2023/01/26 08:10:17;;;;;;;;;;;;;;;;;;;;;
2023/01/26 08:13:19;;;;;;;17.98;9.13;;;;;;;3.52;62.06;99867.06;5003422;28;20054;-96
2023/01/26 08:16:00;;;;;;;;;;;;;;;;;;;;;
2023/01/26 08:18:27;;;;;;;20.15;10.70;;;;;;;3.81;61.85;99879.84;4892145;29;20062;-96
2023/01/26 08:20:53;;;;;;;17.17;8.18;;;;;;;3.53;62.41;99874.03;4917476;29;20035;-96
2023/01/26 08:23:20;;;;;;;16.20;8.55;;;;;;;3.76;62.51;99890.34;4915773;29;20431;-96
2023/01/26 08:25:46;;;;;;;24.88;10.73;;;;;;;4.07;61.50;99886.09;4909879;29;20031;-96
2023/01/26 08:28:16;;;;;;;22.40;10.63;;;;;;;4.15;61.20;99866.38;4889846;29;20040;-94
2023/01/26 08:30:41;;;;;;;15.90;9.38;;;;;;;4.48;60.37;99892.81;4910732;29;20047;-93
2023/01/26 08:33:12;;;;;;;19.65;10.68;;;;;;;4.43;59.99;99879.31;4923516;29;20031;-96
2023/01/26 08:35:54;;;;;;;;;;;;;;;;;;;;;
2023/01/26 08:38:22;;;;;;;17.38;9.80;;;;;;;4.62;59.27;99854.34;4914446;29;20103;-96
2023/01/26 08:40:55;;;;;;;20.77;10.10;;;;;;;4.54;59.41;99851.16;4933167;29;20522;-96
2023/01/26 08:47:27;;;;;;;;;;;;;;;;;;;;;
2023/01/26 08:53:23;;;;;;;18.77;9.77;;;;;;;4.13;61.13;99826.63;4964534;28;20034;-94
2023/01/26 08:55:49;;;;;;;17.55;9.02;;;;;;;4.26;60.48;99836.38;4956339;28;20038;-91
2023/01/26 08:59:00;;;;;;;19.40;10.40;;;;;;;4.37;60.72;99803.69;4933569;28;20046;-96
2023/01/26 09:01:44;;;;;;;17.83;9.65;;;;;;;4.13;60.95;99817.78;4894538;28;20043;-96
2023/01/26 09:04:16;;;;;;;18.55;9.43;;;;;;;4.03;61.18;99813.78;5000638;23;20065;-96
2023/01/26 09:16:53;;;;;;;14.70;8.47;;;;;;;4.51;60.56;99830.25;4929589;29;20084;-96
2023/01/26 09:19:22;;;;;;;13.88;7.93;;;;;;;4.37;60.71;99822.34;4884139;29;20059;-96
2023/01/26 09:21:52;;;;;;;18.65;8.85;;;;;;;4.18;61.46;99805.47;4899961;29;20044;-95
2023/01/26 09:25:05;;;;;;;21.80;11.05;;;;;;;4.06;61.30;99804.53;4910677;29;20048;-95
2023/01/26 09:27:54;;;;;;;14.00;7.30;;;;;;;3.83;62.01;99808.53;4921887;29;20124;-96
2023/01/26 09:30:23;;;;;;;13.50;7.70;;;;;;;3.98;61.41;99810.91;4898286;29;20040;-96
2023/01/26 09:32:52;;;;;;;16.10;9.10;;;;;;;4.16;61.32;99807.53;4901563;29;20035;-96
2023/01/26 09:35:23;;;;;;;15.93;9.43;;;;;;;4.11;61.61;99804.72;4904079;29;20040;-96
2023/01/26 09:37:59;;;;;;;14.02;8.13;;;;;;;4.13;61.36;99797.31;4943117;29;20027;-96
2023/01/26 09:43:46;;;;;;;16.90;9.30;;;;;;;4.21;62.10;99820.19;5026619;23;20093;-95
2023/01/26 09:46:26;;;;;;;16.35;7.80;;;;;;;4.03;62.24;99784.47;4954524;28;20098;-95
2023/01/26 09:49:16;;;;;;;18.67;9.93;;;;;;;4.33;61.80;99809.66;4947201;29;20494;-94
2023/01/26 09:51:51;;;;;;;16.38;8.98;;;;;;;4.31;62.00;99806.41;4944710;29;20478;-94
2023/01/26 09:54:37;;;;;;;18.17;9.45;;;;;;;4.51;61.57;99808.94;4943617;29;20107;-95
2023/01/26 09:57:18;;;;;;;22.08;8.95;;;;;;;4.43;60.78;99778.00;4942045;29;20042;-94
2023/01/26 09:59:57;;;;;;;16.77;8.63;;;;;;;4.36;61.04;99782.59;4911910;29;20046;-96
2023/01/26 10:03:01;;;;;;;17.15;8.38;;;;;;;4.38;61.07;99761.84;4929177;29;20090;-96
2023/01/26 10:05:47;;;;;;;15.95;8.82;;;;;;;4.71;60.70;99780.22;4926559;29;20131;-95
2023/01/26 10:08:13;;;;;;;13.45;8.05;;;;;;;4.52;60.30;99757.22;4944108;29;20043;-95
2023/01/26 10:10:45;;;;;;;20.58;9.52;;;;;;;4.56;61.33;99755.75;4928976;29;20133;-91
2023/01/26 10:13:13;;;;;;;15.18;8.38;;;;;;;4.47;60.79;99719.75;4933038;28;20047;-92
2023/01/26 10:15:46;;;;;;;15.70;8.80;;;;;;;4.49;61.22;99731.00;4943438;28;20098;-94
2023/01/26 10:18:18;;;;;;;15.70;8.57;;;;;;;4.35;62.38;99727.63;4945298;28;20046;-93
2023/01/26 10:20:48;;;;;;;23.17;11.52;;;;;;;4.62;61.80;99733.53;4944704;28;20022;-95
2023/01/26 10:23:28;;;;;;;20.35;9.23;;;;;;;4.68;61.08;99718.50;4932913;28;20521;-94
2023/01/26 10:26:29;;;;;;;14.50;8.20;;;;;;;4.51;61.27;99720.94;4936409;28;20137;-95
2023/01/26 10:29:40;;;;;;;15.40;8.88;;;;;;;4.64;60.67;99691.44;4969077;29;20129;-96
2023/01/26 10:35:45;;;;;;;22.63;8.68;;;;;;;4.85;60.58;99692.84;4826504;29;20117;-95
2023/01/26 10:38:35;;;;;;;20.13;10.25;;;;;;;4.88;60.82;99716.44;4801464;29;20125;-92
2023/01/26 10:41:04;;;;;;;17.98;8.82;;;;;;;4.68;60.05;99687.31;4914110;28;20065;-93
2023/01/26 10:46:41;;;;;;;18.75;9.57;;;;;;;4.95;60.01;99690.47;4936110;29;20062;-95
2023/01/26 10:49:07;;;;;;;16.45;9.13;;;;;;;5.18;59.40;99689.78;4932440;29;20036;-96
2023/01/26 10:51:36;;;;;;;16.85;9.20;;;;;;;5.12;60.65;99677.34;4947527;29;20037;-96
2023/01/26 10:54:27;;;;;;;19.83;8.73;;;;;;;5.34;59.71;99684.88;4951476;28;20065;-96
2023/01/26 10:57:03;;;;;;;19.95;8.68;;;;;;;5.26;60.04;99678.00;4969983;28;20047;-94
2023/01/26 10:59:31;;;;;;;14.73;8.40;;;;;;;4.98;59.77;99659.88;4949651;28;20110;-93
2023/01/26 11:02:18;;;;;;;19.92;10.15;;;;;;;5.11;59.46;99658.91;4938312;28;20043;-94
2023/01/26 11:05:08;;;;;;;15.25;8.40;;;;;;;5.05;60.73;99642.75;4947509;29;20042;-95
2023/01/26 11:11:02;;;;;;;14.48;7.80;;;;;;;4.93;61.61;99638.38;4947841;29;20054;-95
2023/01/26 11:13:29;;;;;;;20.67;12.65;;;;;;;4.94;60.05;99613.31;4943766;29;20034;-95
2023/01/26 11:16:21;;;;;;;15.75;8.70;;;;;;;4.98;60.83;99615.34;4958835;29;20039;-94
2023/01/26 11:19:13;;;;;;;17.73;7.63;;;;;;;4.86;60.94;99609.94;4932807;28;20039;-94
2023/01/26 11:21:52;;;;;;;13.60;7.55;;;;;;;4.94;61.66;99621.31;4944977;28;20717;-94
2023/01/26 11:24:25;;;;;;;20.80;8.85;;;;;;;4.84;60.95;99589.88;4925923;28;20043;-93
2023/01/26 11:27:25;;;;;;;16.02;7.90;;;;;;;4.93;60.96;99601.84;4939921;28;20042;-92
2023/01/26 11:30:05;;;;;;;13.18;7.40;;;;;;;4.87;61.33;99597.41;4961142;28;20043;-93
2023/01/26 11:32:52;;;;;;;12.25;7.50;;;;;;;4.94;61.11;99587.47;4944878;28;20125;-92
2023/01/26 11:35:33;;;;;;;12.95;6.82;;;;;;;4.78;61.80;99585.44;4952709;28;20098;-92
2023/01/26 11:38:22;;;;;;;19.52;8.23;;;;;;;4.87;62.02;99562.72;4947513;28;20070;-95
2023/01/26 11:40:56;;;;;;;14.15;7.57;;;;;;;4.81;62.05;99553.75;4946787;28;20098;-92
2023/01/26 11:43:50;;;;;;;18.80;8.82;;;;;;;4.89;62.94;99576.66;4944219;28;20039;-95
2023/01/26 11:46:52;;;;;;;14.15;6.60;;;;;;;4.83;62.59;99580.22;4963238;28;20047;-94
2023/01/26 11:49:33;;;;;;;14.15;7.78;;;;;;;4.98;63.46;99572.66;4966326;28;20039;-95
2023/01/26 11:52:48;;;;;;;16.77;8.10;;;;;;;4.95;62.79;99558.94;4976564;28;20117;-92
2023/01/26 11:56:10;;;;;;;17.67;9.18;;;;;;;5.24;62.63;99565.28;4912029;29;20136;-94
2023/01/26 11:59:05;;;;;;;17.83;6.88;;;;;;;5.25;62.03;99558.91;4905059;29;20054;-93
2023/01/26 12:02:01;;;;;;;13.95;6.47;;;;;;;5.29;62.00;99540.56;4956285;29;20581;-95
2023/01/26 12:04:33;;;;;;;16.38;7.50;;;;;;;5.23;61.50;99519.09;4932516;29;20098;-93
2023/01/26 12:07:17;;;;;;;;;;;;;;;5.19;62.49;99539.28;4941088;29;20070;-94
2023/01/26 12:09:51;;;;;;;16.38;8.18;;;;;;;5.12;62.29;99516.41;4942106;29;19963;-94
2023/01/26 12:12:36;;;;;;;12.68;6.78;;;;;;;5.33;61.85;99542.53;4928516;29;20042;-92
2023/01/26 12:15:28;;;;;;;15.63;7.25;;;;;;;5.19;62.74;99543.81;4938447;29;20122;-94
2023/01/26 12:18:11;;;;;;;;;;;;;;;5.28;62.30;99550.44;4931608;29;20058;-93
2023/01/26 12:26:14;;;;;;;14.23;7.32;;;;;;;5.04;62.69;99544.22;5108438;23;20086;-96
2023/01/26 12:29:08;;;;;;;12.05;6.32;;;;;;;5.16;62.08;99531.72;4956019;28;20038;-96
2023/01/26 12:32:15;;;;;;;11.63;6.15;;;;;;;5.38;63.08;99545.34;4974554;28;20118;-96
2023/01/26 12:47:59;;;;;;;11.00;5.57;;;;;;;5.16;64.23;99512.22;4982049;28;19922;-94
2023/01/26 12:50:39;;;;;;;10.45;5.88;;;;;;;5.30;63.36;99513.66;4965401;28;20043;-94
2023/01/26 12:53:06;;;;;;;14.10;6.93;;;;;;;5.19;64.51;99495.78;4972203;28;20045;-95
2023/01/26 12:56:04;;;;;;;15.75;9.48;;;;;;;5.48;63.72;99526.09;4960966;28;20038;-96
2023/01/26 12:58:54;;;;;;;16.52;7.88;;;;;;;5.26;64.27;99504.47;4986604;28;20030;-96
2023/01/26 13:01:25;;;;;;;15.23;7.65;;;;;;;5.16;64.62;99497.03;4976961;28;20026;-96
2023/01/26 13:03:57;;;;;;;17.13;8.10;;;;;;;5.35;63.71;99527.09;4950633;28;20034;-96
2023/01/26 13:06:23;;;;;;;;;;;;;;;5.46;63.00;99531.66;4967004;28;20038;-95
2023/01/26 13:09:21;;;;;;;13.57;6.63;;;;;;;5.35;63.07;99516.41;4966297;28;19914;-96
2023/01/26 13:11:55;;;;;;;13.27;7.25;;;;;;;5.54;61.87;99486.94;4975057;28;20049;-96
2023/01/26 13:14:31;;;;;;;18.42;12.00;;;;;;;5.73;63.25;99492.97;4985334;28;20045;-96
2023/01/26 13:22:02;;;;;;;12.93;7.10;;;;;;;5.66;62.18;99456.53;4952092;28;20055;-94
2023/01/26 13:24:27;;;;;;;15.07;8.20;;;;;;;5.88;62.17;99470.06;4925371;29;20050;-94
2023/01/26 13:26:54;;;;;;;14.75;8.65;;;;;;;5.77;62.57;99462.91;4952417;29;20058;-95
2023/01/26 13:29:30;;;;;;;17.42;9.18;;;;;;;5.89;62.71;99478.91;4931217;29;20102;-95
2023/01/26 13:32:00;;;;;;;17.35;7.82;;;;;;;5.61;62.58;99461.75;4936646;29;20041;-93
2023/01/26 13:34:41;;;;;;;18.58;7.53;;;;;;;5.59;63.61;99466.50;4949586;29;20043;-96
2023/01/26 13:37:35;;;;;;;15.38;7.95;;;;;;;5.46;62.62;99432.06;4907745;29;20103;-94
2023/01/26 13:40:08;;;;;;;15.55;8.05;;;;;;;5.59;62.97;99431.78;4944228;29;20505;-95
2023/01/26 13:42:51;;;;;;;16.23;8.00;;;;;;;5.53;63.57;99446.06;4925108;29;20043;-96
2023/01/26 13:45:28;;;;;;;15.25;7.97;;;;;;;5.52;64.20;99438.28;4930032;29;20074;-94
2023/01/26 13:48:03;;;;;;;22.55;13.48;;;;;;;5.69;62.96;99468.59;4922508;29;20133;-94
2023/01/26 13:50:36;;;;;;;23.98;12.00;;;;;;;5.49;63.63;99434.25;4931779;29;20170;-96